createdAt,value
2022-11-09T00:00:11.067Z,98644.75
2022-11-09T00:02:42.921Z,98646.88
2022-11-09T00:05:11.092Z,98651.81
2022-11-09T00:07:38.075Z,98642.69
2022-11-09T00:10:05.461Z,98649.09
2022-11-09T00:12:32.372Z,98648.91
2022-11-09T00:14:59.220Z,98646.69
2022-11-09T00:17:26.148Z,98647.34
2022-11-09T00:19:53.002Z,98645.28
2022-11-09T00:22:19.858Z,98644.50
2022-11-09T00:24:46.780Z,98645.28
2022-11-09T00:27:17.482Z,98640.41
2022-11-09T00:29:44.656Z,98646.56
2022-11-09T00:32:11.642Z,98641.09
2022-11-09T00:34:38.607Z,98642.28
2022-11-09T00:37:06.195Z,98637.81
2022-11-09T00:39:33.051Z,98640.66
2022-11-09T00:41:59.909Z,98638.31
2022-11-09T00:44:29.945Z,98637.78
2022-11-09T00:46:56.826Z,98642.56
2022-11-09T00:49:23.755Z,98632.31
2022-11-09T00:51:50.809Z,98637.34
2022-11-09T00:54:17.875Z,98642.03
2022-11-09T00:56:44.770Z,98645.94
2022-11-09T00:59:12.024Z,98634.75
2022-11-09T01:01:39.498Z,98639.47
2022-11-09T01:04:06.459Z,98635.59
2022-11-09T01:06:34.150Z,98632.13
2022-11-09T01:09:02.027Z,98637.41
2022-11-09T01:11:28.974Z,98637.09
2022-11-09T01:13:56.078Z,98634.63
2022-11-09T01:16:24.653Z,98633.50
2022-11-09T01:18:58.521Z,98634.34
2022-11-09T01:21:26.855Z,98642.13
2022-11-09T01:23:53.842Z,98641.13
2022-11-09T01:26:20.862Z,98645.84
2022-11-09T01:28:50.427Z,98640.78
2022-11-09T01:31:19.701Z,98645.69
2022-11-09T01:33:47.428Z,98639.31
2022-11-09T01:36:25.203Z,98645.69
2022-11-09T01:38:52.540Z,98644.69
2022-11-09T01:41:24.486Z,98646.94
2022-11-09T01:44:14.836Z,98649.31
2022-11-09T01:46:54.059Z,98644.56
2022-11-09T01:49:26.951Z,98639.44
2022-11-09T01:52:02.924Z,98645.97
2022-11-09T01:54:38.160Z,98642.91
2022-11-09T01:57:10.565Z,98637.84
2022-11-09T01:59:43.381Z,98629.38
2022-11-09T02:02:10.894Z,98633.22
2022-11-09T02:04:55.896Z,98642.75
2022-11-09T02:07:23.612Z,98645.84
2022-11-09T02:10:00.932Z,98635.59
2022-11-09T02:12:29.515Z,98644.47
2022-11-09T02:14:57.747Z,98644.72
2022-11-09T02:17:26.775Z,98652.50
2022-11-09T02:19:53.888Z,98643.75
2022-11-09T02:22:20.907Z,98643.75
2022-11-09T02:24:50.780Z,98645.00
2022-11-09T02:27:20.569Z,98640.16
2022-11-09T02:29:49.080Z,98642.97
2022-11-09T02:32:20.583Z,98635.88
2022-11-09T02:34:48.012Z,98640.44
2022-11-09T02:37:28.958Z,98646.28
2022-11-09T02:39:59.029Z,98642.69
2022-11-09T02:42:26.334Z,98639.09
2022-11-09T02:44:58.627Z,98644.59
2022-11-09T02:47:26.439Z,98645.72
2022-11-09T02:49:54.097Z,98642.09
2022-11-09T02:52:20.938Z,98647.66
2022-11-09T02:54:47.920Z,98646.78
2022-11-09T02:57:15.102Z,98644.69
2022-11-09T02:59:42.901Z,98642.38
2022-11-09T03:02:10.853Z,98639.75
2022-11-09T03:04:39.562Z,98641.72
2022-11-09T03:07:07.883Z,98643.19
2022-11-09T03:09:34.925Z,98639.59
2022-11-09T03:12:21.780Z,98639.88
2022-11-09T03:14:49.421Z,98635.31
2022-11-09T03:17:17.655Z,98644.06
2022-11-09T03:19:45.120Z,98645.41
2022-11-09T03:22:13.024Z,98644.34
2022-11-09T03:24:39.979Z,98641.53
2022-11-09T03:27:06.958Z,98647.59
2022-11-09T03:29:33.826Z,98642.56
2022-11-09T03:32:01.880Z,98638.66
2022-11-09T03:34:28.968Z,98638.31
2022-11-09T03:36:56.016Z,98639.31
2022-11-09T03:39:22.937Z,98632.53
2022-11-09T03:41:49.979Z,98646.13
2022-11-09T03:44:16.935Z,98638.16
2022-11-09T03:46:44.150Z,98639.00
2022-11-09T03:49:11.050Z,98633.88
2022-11-09T03:51:38.117Z,98631.69
2022-11-09T03:54:05.019Z,98631.94
2022-11-09T03:56:31.887Z,98631.56
2022-11-09T03:58:58.779Z,98633.94
2022-11-09T04:01:25.736Z,98637.13
2022-11-09T04:03:52.587Z,98641.72
2022-11-09T04:06:19.425Z,98636.63
2022-11-09T04:08:51.141Z,98646.41
2022-11-09T04:11:19.615Z,98639.63
2022-11-09T04:13:47.580Z,98644.88
2022-11-09T04:16:14.495Z,98644.56
2022-11-09T04:18:41.420Z,98643.88
2022-11-09T04:21:08.887Z,98644.38
2022-11-09T04:23:35.850Z,98644.84
2022-11-09T04:26:02.699Z,98641.41
2022-11-09T04:28:29.591Z,98638.03
2022-11-09T04:31:01.097Z,98638.88
2022-11-09T04:33:28.376Z,98639.59
2022-11-09T04:35:55.304Z,98637.81
2022-11-09T04:38:22.242Z,98638.50
2022-11-09T04:40:49.215Z,98641.75
2022-11-09T04:43:16.244Z,98644.13
2022-11-09T04:45:43.172Z,98653.69
2022-11-09T04:48:11.224Z,98642.91
2022-11-09T04:50:38.334Z,98655.31
2022-11-09T04:53:10.920Z,98653.38
2022-11-09T04:55:38.523Z,98655.03
2022-11-09T04:58:05.821Z,98664.91
2022-11-09T05:00:33.221Z,98667.09
2022-11-09T05:03:05.192Z,98670.41
2022-11-09T05:05:36.189Z,98671.88
2022-11-09T05:08:03.984Z,98671.50
2022-11-09T05:10:31.473Z,98673.16
2022-11-09T05:13:06.279Z,98675.41
2022-11-09T05:15:33.823Z,98678.69
2022-11-09T05:18:01.952Z,98672.91
2022-11-09T05:20:29.834Z,98689.31
2022-11-09T05:23:17.694Z,98684.94
2022-11-09T05:25:44.802Z,98688.56
2022-11-09T05:28:12.008Z,98690.16
2022-11-09T05:30:39.325Z,98700.59
2022-11-09T05:33:06.442Z,98697.88
2022-11-09T05:35:34.396Z,98702.63
2022-11-09T05:38:01.331Z,98700.31
2022-11-09T05:40:28.498Z,98706.72
2022-11-09T05:42:56.753Z,98706.03
2022-11-09T05:45:41.873Z,98707.88
2022-11-09T05:48:11.228Z,98708.97
2022-11-09T05:50:38.829Z,98712.84
2022-11-09T05:53:24.151Z,98716.75
2022-11-09T05:55:51.213Z,98717.06
2022-11-09T05:58:18.192Z,98719.59
2022-11-09T06:00:45.071Z,98725.81
2022-11-09T06:03:12.424Z,98728.75
2022-11-09T06:05:41.005Z,98728.22
2022-11-09T06:08:10.576Z,98731.31
2022-11-09T06:10:37.678Z,98730.38
2022-11-09T06:13:04.607Z,98734.13
2022-11-09T06:15:31.552Z,98737.31
2022-11-09T06:17:59.611Z,98738.78
2022-11-09T06:20:28.320Z,98741.06
2022-11-09T06:23:02.519Z,98739.56
2022-11-09T06:25:31.968Z,98745.53
2022-11-09T06:27:59.176Z,98748.88
2022-11-09T06:30:26.152Z,98749.16
2022-11-09T06:32:59.039Z,98750.31
2022-11-09T06:35:26.002Z,98755.44
2022-11-09T06:38:00.872Z,98758.91
2022-11-09T06:40:28.225Z,98751.41
2022-11-09T06:42:59.467Z,98750.47
2022-11-09T06:45:27.860Z,98747.81
2022-11-09T06:47:58.562Z,98755.44
2022-11-09T06:50:27.870Z,98753.91
2022-11-09T06:53:03.127Z,98758.34
2022-11-09T06:55:31.633Z,98756.25
2022-11-09T06:57:58.704Z,98758.22
2022-11-09T07:00:27.325Z,98762.34
2022-11-09T07:02:54.303Z,98773.56
2022-11-09T07:05:21.379Z,98769.69
2022-11-09T07:07:48.262Z,98759.97
2022-11-09T07:10:15.488Z,98775.53
2022-11-09T07:12:42.561Z,98773.81
2022-11-09T07:15:11.503Z,98763.69
2022-11-09T07:17:39.886Z,98766.63
2022-11-09T07:20:08.612Z,98760.22
2022-11-09T07:22:39.582Z,98758.81
2022-11-09T07:25:07.993Z,98757.50
2022-11-09T07:27:35.508Z,98749.97
2022-11-09T07:30:02.621Z,98750.38
2022-11-09T07:33:01.867Z,98747.75
2022-11-09T07:35:16.521Z,98753.66
2022-11-09T07:37:43.388Z,98745.53
2022-11-09T07:40:10.775Z,98750.47
2022-11-09T07:42:37.657Z,98753.47
2022-11-09T07:45:06.428Z,98750.78
2022-11-09T07:47:33.342Z,98755.97
2022-11-09T07:50:00.208Z,98753.66
2022-11-09T07:52:27.173Z,98754.44
2022-11-09T07:54:54.088Z,98753.31
2022-11-09T07:57:21.200Z,98764.09
2022-11-09T07:59:48.041Z,98755.50
2022-11-09T08:02:14.928Z,98765.41
2022-11-09T08:04:41.812Z,98763.25
2022-11-09T08:07:08.742Z,98755.88
2022-11-09T08:09:35.651Z,98764.41
2022-11-09T08:12:02.584Z,98765.22
2022-11-09T08:14:29.424Z,98768.66
2022-11-09T08:16:56.759Z,98760.34
2022-11-09T08:19:23.592Z,98759.78
2022-11-09T08:21:50.540Z,98762.28
2022-11-09T08:24:17.446Z,98757.53
2022-11-09T08:26:44.304Z,98750.28
2022-11-09T08:29:13.632Z,98755.44
2022-11-09T08:31:40.603Z,98755.44
2022-11-09T08:34:12.818Z,98752.34
2022-11-09T08:36:40.053Z,98759.41
2022-11-09T08:39:06.915Z,98760.19
2022-11-09T08:41:34.061Z,98767.28
2022-11-09T08:44:00.920Z,98773.94
2022-11-09T08:46:27.864Z,98767.97
2022-11-09T08:48:54.780Z,98764.47
2022-11-09T08:51:21.653Z,98765.25
2022-11-09T08:53:48.498Z,98764.13
2022-11-09T08:56:19.160Z,98776.66
2022-11-09T08:58:46.352Z,98771.34
2022-11-09T09:01:16.972Z,98774.31
2022-11-09T09:03:44.309Z,98773.78
2022-11-09T09:06:11.230Z,98768.88
2022-11-09T09:08:38.077Z,98770.53
2022-11-09T09:11:06.251Z,98771.38
2022-11-09T09:13:35.794Z,98771.44
2022-11-09T09:16:10.596Z,98772.94
2022-11-09T09:18:37.742Z,98770.16
2022-11-09T09:21:11.730Z,98768.44
2022-11-09T09:23:38.725Z,98763.13
2022-11-09T09:26:06.065Z,98769.41
2022-11-09T09:28:33.571Z,98760.84
2022-11-09T09:31:01.760Z,98753.69
2022-11-09T09:33:29.396Z,98764.25
2022-11-09T09:35:57.892Z,98760.94
2022-11-09T09:38:26.391Z,98755.78
2022-11-09T09:41:00.337Z,98758.25
2022-11-09T09:43:59.161Z,98759.31
2022-11-09T10:17:12.082Z,98732.72
2022-11-09T10:19:50.881Z,98744.03
2022-11-09T10:22:49.953Z,98737.47
2022-11-09T10:25:37.971Z,98727.91
2022-11-09T10:28:14.352Z,98715.53
2022-11-09T10:30:42.212Z,98722.53
2022-11-09T10:33:09.052Z,98712.16
2022-11-09T10:35:42.605Z,98718.50
2022-11-09T10:38:15.989Z,98715.03
2022-11-09T10:40:50.203Z,98718.72
2022-11-09T10:43:35.913Z,98710.16
2022-11-09T10:46:21.770Z,98707.69
2022-11-09T10:49:21.169Z,98714.00
2022-11-09T10:52:27.188Z,98716.19
2022-11-09T10:55:24.184Z,98705.97
2022-11-09T10:58:30.814Z,98697.75
2022-11-09T11:01:20.062Z,98700.59
2022-11-09T11:04:23.628Z,98698.34
2022-11-09T11:07:21.463Z,98699.09
2022-11-09T11:10:25.383Z,98696.66
2022-11-09T11:13:10.464Z,98688.09
2022-11-09T11:15:55.923Z,98687.22
2022-11-09T11:18:46.695Z,98685.31
2022-11-09T11:21:32.465Z,98684.78
2022-11-09T11:24:21.175Z,98688.59
2022-11-09T11:27:14.277Z,98693.88
2022-11-09T11:30:10.686Z,98685.63
2022-11-09T11:32:56.415Z,98686.00
2022-11-09T11:35:53.829Z,98685.63
2022-11-09T11:39:11.018Z,98676.00
2022-11-09T11:42:05.558Z,98688.63
2022-11-09T11:48:39.375Z,98695.06
2022-11-09T11:51:49.245Z,98698.03
2022-11-09T11:54:37.493Z,98697.00
2022-11-09T11:57:47.583Z,98690.06
2022-11-09T12:00:50.205Z,98693.09
2022-11-09T12:03:50.892Z,98691.16
2022-11-09T12:06:44.140Z,98687.34
2022-11-09T12:09:47.676Z,98684.66
2022-11-09T12:12:33.035Z,98679.00
2022-11-09T12:15:30.518Z,98682.69
2022-11-09T12:18:42.070Z,98679.50
2022-11-09T12:21:57.606Z,98688.72
2022-11-09T12:25:16.579Z,98691.16
2022-11-09T12:28:23.806Z,98689.94
2022-11-09T12:31:21.483Z,98687.13
2022-11-09T12:34:13.459Z,98688.69
2022-11-09T12:36:58.978Z,98684.22
2022-11-09T12:39:55.543Z,98686.09
2022-11-09T12:42:49.482Z,98696.81
2022-11-09T12:45:38.590Z,98691.97
2022-11-09T12:48:31.060Z,98689.47
2022-11-09T12:51:17.187Z,98684.22
2022-11-09T12:54:11.507Z,98689.50
2022-11-09T12:57:01.325Z,98690.25
2022-11-09T12:59:50.419Z,98687.69
2022-11-09T13:02:55.497Z,98691.97
2022-11-09T13:05:43.183Z,98685.03
2022-11-09T13:08:31.106Z,98688.88
2022-11-09T13:11:39.958Z,98695.25
2022-11-09T13:14:31.745Z,98690.53
2022-11-09T13:17:29.127Z,98684.81
2022-11-09T13:24:14.152Z,98696.75
2022-11-09T13:26:47.235Z,98695.69
2022-11-09T13:29:41.804Z,98697.78
2022-11-09T13:32:30.028Z,98691.50
2022-11-09T13:35:40.244Z,98698.66
2022-11-09T13:38:28.768Z,98693.31
2022-11-09T13:41:29.701Z,98695.81
2022-11-09T13:44:19.261Z,98690.41
2022-11-09T13:47:05.280Z,98689.91
2022-11-09T13:49:52.229Z,98690.50
2022-11-09T13:52:42.630Z,98698.00
2022-11-09T13:55:40.943Z,98687.38
2022-11-09T13:58:34.959Z,98692.66
2022-11-09T14:01:59.513Z,98683.03
2022-11-09T14:04:45.226Z,98685.63
2022-11-09T14:07:38.457Z,98691.72
2022-11-09T14:10:46.835Z,98684.25
2022-11-09T14:13:51.026Z,98686.13
2022-11-09T14:17:11.024Z,98684.06
2022-11-09T14:20:20.284Z,98692.03
2022-11-09T14:23:19.352Z,98692.59
2022-11-09T14:26:18.743Z,98697.50
2022-11-09T14:29:24.443Z,98691.81
2022-11-09T14:32:37.137Z,98691.56
2022-11-09T14:35:36.595Z,98690.22
2022-11-09T14:38:36.767Z,98686.94
2022-11-09T14:41:27.985Z,98684.69
2022-11-09T14:44:23.053Z,98685.81
2022-11-09T14:47:20.316Z,98681.72
2022-11-09T14:50:14.618Z,98691.28
2022-11-09T14:53:01.417Z,98698.13
2022-11-09T14:55:52.089Z,98699.19
2022-11-09T14:58:41.892Z,98693.31
2022-11-09T15:01:28.360Z,98695.66
2022-11-09T15:04:22.915Z,98700.91
2022-11-09T15:07:18.922Z,98703.44
2022-11-09T15:10:08.265Z,98702.31
2022-11-09T15:12:57.912Z,98711.72
2022-11-09T15:15:51.111Z,98713.88
2022-11-09T15:18:42.428Z,98711.59
2022-11-09T15:21:27.731Z,98706.19
2022-11-09T15:24:17.818Z,98706.94
2022-11-09T15:27:04.233Z,98707.75
2022-11-09T15:29:49.880Z,98710.22
2022-11-09T15:32:39.664Z,98713.63
2022-11-09T15:35:25.550Z,98713.19
2022-11-09T15:38:33.997Z,98716.09
2022-11-09T15:41:22.950Z,98715.47
2022-11-09T15:44:10.435Z,98716.03
2022-11-09T15:46:55.851Z,98713.53
2022-11-09T15:49:41.498Z,98715.34
2022-11-09T15:52:27.941Z,98711.63
2022-11-09T15:55:22.228Z,98712.47
2022-11-09T15:58:07.562Z,98714.13
2022-11-09T16:00:52.984Z,98715.91
2022-11-09T16:03:38.696Z,98717.44
2022-11-09T16:06:24.352Z,98712.03
2022-11-09T16:09:10.147Z,98717.84
2022-11-09T16:11:55.399Z,98720.78
2022-11-09T16:14:40.999Z,98726.25
2022-11-09T16:17:26.320Z,98722.25
2022-11-09T16:20:12.170Z,98724.59
2022-11-09T16:22:57.677Z,98721.47
2022-11-09T16:25:44.813Z,98718.41
2022-11-09T16:28:30.259Z,98728.31
2022-11-09T16:31:16.035Z,98725.91
2022-11-09T16:34:01.285Z,98735.16
2022-11-09T16:36:52.335Z,98729.59
2022-11-09T16:39:40.891Z,98737.66
2022-11-09T16:42:26.544Z,98730.28
2022-11-09T16:45:15.337Z,98736.28
2022-11-09T16:48:03.302Z,98733.97
2022-11-09T16:50:49.028Z,98728.81
2022-11-09T16:53:34.342Z,98739.00
2022-11-09T16:56:19.914Z,98731.34
2022-11-09T16:59:04.927Z,98736.97
2022-11-09T17:01:57.443Z,98729.84
2022-11-09T17:04:43.028Z,98726.16
2022-11-09T17:07:28.861Z,98728.03
2022-11-09T17:10:14.760Z,98725.56
2022-11-09T17:13:01.015Z,98729.63
2022-11-09T17:15:48.749Z,98730.13
2022-11-09T17:18:35.148Z,98730.50
2022-11-09T17:21:21.938Z,98738.88
2022-11-09T17:24:07.620Z,98737.72
2022-11-09T17:26:53.297Z,98738.69
2022-11-09T17:29:39.931Z,98740.28
2022-11-09T17:32:28.259Z,98739.91
2022-11-09T17:35:13.922Z,98732.34
2022-11-09T17:37:59.373Z,98734.41
2022-11-09T17:40:44.433Z,98739.03
2022-11-09T17:43:31.702Z,98736.34
2022-11-09T17:46:20.364Z,98735.75
2022-11-09T17:49:09.955Z,98736.00
2022-11-09T17:51:56.400Z,98736.22
2022-11-09T17:54:42.022Z,98735.81
2022-11-09T17:57:27.746Z,98732.69
2022-11-09T18:00:13.908Z,98734.09
2022-11-09T18:02:59.238Z,98736.53
2022-11-09T18:05:45.507Z,98729.59
2022-11-09T18:08:31.234Z,98728.56
2022-11-09T18:11:18.116Z,98727.34
2022-11-09T18:14:03.783Z,98737.63
2022-11-09T18:16:49.334Z,98737.84
2022-11-09T18:19:34.823Z,98740.88
2022-11-09T18:22:20.408Z,98737.03
2022-11-09T18:25:06.112Z,98741.06
2022-11-09T18:27:52.717Z,98743.94
2022-11-09T18:30:41.784Z,98738.59
2022-11-09T18:33:28.253Z,98739.34
2022-11-09T18:36:16.588Z,98744.72
2022-11-09T18:39:03.317Z,98737.56
2022-11-09T18:41:49.055Z,98740.31
2022-11-09T18:44:34.413Z,98739.41
2022-11-09T18:47:20.609Z,98739.78
2022-11-09T18:50:07.210Z,98745.25
2022-11-09T18:52:52.390Z,98739.66
2022-11-09T18:55:37.959Z,98747.00
2022-11-09T18:58:23.779Z,98737.94
2022-11-09T19:01:09.237Z,98736.03
2022-11-09T19:03:59.048Z,98743.69
2022-11-09T19:06:45.451Z,98737.47
2022-11-09T19:09:38.953Z,98740.59
2022-11-09T19:12:25.191Z,98739.16
2022-11-09T19:15:10.967Z,98741.84
2022-11-09T19:17:57.021Z,98753.06
2022-11-09T19:20:42.904Z,98745.63
2022-11-09T19:23:34.100Z,98748.72
2022-11-09T19:26:20.520Z,98753.06
2022-11-09T19:29:07.530Z,98754.03
2022-11-09T19:31:53.469Z,98750.31
2022-11-09T19:34:38.991Z,98756.22
2022-11-09T19:37:24.610Z,98750.06
2022-11-09T19:40:10.652Z,98754.25
2022-11-09T19:42:56.881Z,98749.34
2022-11-09T19:45:42.949Z,98762.03
2022-11-09T19:48:28.751Z,98746.72
2022-11-09T19:51:15.825Z,98750.91
2022-11-09T19:54:02.196Z,98757.59
2022-11-09T19:56:48.061Z,98750.31
2022-11-09T19:59:34.054Z,98762.41
2022-11-09T20:02:19.793Z,98756.00
2022-11-09T20:05:05.770Z,98757.88
2022-11-09T20:07:51.038Z,98751.75
2022-11-09T20:10:37.907Z,98751.97
2022-11-09T20:13:24.608Z,98740.78
2022-11-09T20:16:10.587Z,98744.25
2022-11-09T20:18:56.874Z,98746.44
2022-11-09T20:21:42.204Z,98748.25
2022-11-09T20:24:27.874Z,98749.25
2022-11-09T20:27:13.148Z,98745.84
2022-11-09T20:29:58.457Z,98739.69
2022-11-09T20:32:43.957Z,98734.88
2022-11-09T20:35:29.251Z,98738.19
2022-11-09T20:38:14.812Z,98738.09
2022-11-09T20:41:03.380Z,98735.31
2022-11-09T20:43:48.846Z,98737.88
2022-11-09T20:46:36.864Z,98736.66
2022-11-09T20:49:22.667Z,98736.06
2022-11-09T20:52:07.880Z,98737.16
2022-11-09T20:54:53.406Z,98730.44
2022-11-09T20:57:39.051Z,98731.63
2022-11-09T21:00:24.722Z,98736.31
2022-11-09T21:03:10.082Z,98729.75
2022-11-09T21:05:59.160Z,98728.94
2022-11-09T21:08:46.396Z,98728.47
2022-11-09T21:11:35.684Z,98729.81
2022-11-09T21:14:21.207Z,98730.00
2022-11-09T21:17:06.909Z,98731.31
2022-11-09T21:19:52.700Z,98724.09
2022-11-09T21:22:56.540Z,98724.84
2022-11-09T21:26:02.585Z,98734.38
2022-11-09T21:29:06.420Z,98733.19
2022-11-09T21:31:52.101Z,98734.50
2022-11-09T21:34:37.819Z,98730.88
2022-11-09T21:37:23.457Z,98735.28
2022-11-09T21:40:09.760Z,98719.63
2022-11-09T21:42:56.102Z,98724.03
2022-11-09T21:45:42.572Z,98720.81
2022-11-09T21:48:27.990Z,98728.53
2022-11-09T21:51:13.585Z,98725.22
2022-11-09T21:54:00.096Z,98729.63
2022-11-09T21:56:47.460Z,98729.50
2022-11-09T21:59:32.588Z,98734.25
2022-11-09T22:02:18.201Z,98728.56
2022-11-09T22:05:03.428Z,98728.63
2022-11-09T22:07:49.167Z,98728.28
2022-11-09T22:10:34.349Z,98728.28
2022-11-09T22:13:37.934Z,98721.81
2022-11-09T22:16:25.415Z,98723.88
2022-11-09T22:19:29.179Z,98727.78
2022-11-09T22:22:15.189Z,98729.94
2022-11-09T22:25:00.652Z,98725.97
2022-11-09T22:27:46.569Z,98726.84
2022-11-09T22:30:31.699Z,98724.81
2022-11-09T22:33:21.760Z,98718.28
2022-11-09T22:36:12.280Z,98721.59
2022-11-09T22:38:57.908Z,98724.59
2022-11-09T22:41:43.227Z,98726.13
2022-11-09T22:44:28.810Z,98727.31
2022-11-09T22:47:14.054Z,98722.75
2022-11-09T22:49:59.334Z,98724.84
2022-11-09T22:52:45.123Z,98726.09
2022-11-09T22:59:42.184Z,98725.66
2022-11-09T23:02:29.020Z,98715.50
2022-11-09T23:05:14.902Z,98723.28
2022-11-09T23:08:00.359Z,98721.69
2022-11-09T23:10:54.664Z,98721.91
2022-11-09T23:13:40.555Z,98722.03
2022-11-09T23:16:26.340Z,98723.84
2022-11-09T23:19:12.052Z,98725.00
2022-11-09T23:21:57.539Z,98720.03
2022-11-09T23:25:01.547Z,98719.09
2022-11-09T23:27:51.101Z,98712.88
2022-11-09T23:35:40.983Z,98726.13
